KBOK/BOK METAR and TAF weather

Enter ICAO airport designator
Station Type Date Time Source
KBOK METAR 2018/01/21 12:22 UTC NOAA

KBOK 211222Z AUTO 14010G15KT 10SM -RA BKN027 OVC032 09/04 A3011 RMK AO2 RAB01 P0000


Station Type Date Time Source
KBOK Decoded METAR 2018/01/21 12:22 UTC NOAA

Brookings, Brookings Airport, OR, United States (KBOK) 42-04-28N 124-17-24W
Jan 21, 2018 - 07:22 AM EST / 2018.01.21 1222 UTC
Wind: from the SE (140 degrees) at 12 MPH (10 KT) gusting to 17 MPH (15 KT):0
Visibility: 10 mile(s):0
Sky conditions: overcast
Weather: light rain
Precipitation last hour: A trace
Temperature: 48 F (9 C)
Dew Point: 39 F (4 C)
Relative Humidity: 70%
Pressure (altimeter): 30.11 in. Hg (1019 hPa)
ob: KBOK 211222Z AUTO 14010G15KT 10SM -RA BKN027 OVC032 09/04 A3011 RMK AO2 RAB01 P0000
cycle: 12

Station Type Date Time Source
KBOK TAF UTC NOAA

Error!


Example: see airport list